Mc Comb, Pike County, John E Lewis Field Mc Comb US
ICAO: KMCB
IATA: MCB
Category: Medium
Scheduled Services: No

Elevation: 413 ft
TransAlt. 18000 ft.

Airport Communications:
ASOS:119.025
HOUSTON CNTR:133.5
GREENWOOD RDO:122.2
CTAF/UNICOM:123.05

KMCB Zoom In..

If Map Doesn't Load, Click Here

Runways:

(A) RW 15 length 5000 ft width 100 ft
ILS 109.10 / hdg 153

(B) RW 33 length 5000 ft width 100 ft
---- / hdg 333

Location; KMCB
Day. 21 / Time. 13.53 Zulu
* Altimeter: 30.09
* Temperature: 27° c. 80.6°f.
* Wind from: 100° Speed 04 kn.
Dewpoint: 23° c.
Visibility: 10 Statute Miles.
Clouds: Few 1700 ft.

KMCB 211353Z AUTO 10004KT 10SM FEW017 27/23 A3009 RMK AO2 SLP182 T02720233


Wind From 100°
Speed 04 kn.

 
 
jpsmedia.com for Web Design worldairports.se 2018   terms of use